createdAt,value
2023-04-25T00:24:13.380Z,2.80
2023-04-25T00:42:51.509Z,3.40
2023-04-25T01:01:30.672Z,2.50
2023-04-25T01:20:09.654Z,3.30
2023-04-25T01:38:48.835Z,2.80
2023-04-25T01:57:27.816Z,4.10
2023-04-25T02:16:07.726Z,4.60
2023-04-25T02:53:26.069Z,4.30
2023-04-25T03:12:05.883Z,4.00
2023-04-25T03:30:51.836Z,4.80
2023-04-25T03:49:21.665Z,4.20
2023-04-25T04:08:00.738Z,4.30
2023-04-25T04:26:40.376Z,4.30
2023-04-25T05:03:59.184Z,4.60
2023-04-25T05:22:39.234Z,3.50
2023-04-25T06:00:04.072Z,3.80
2023-04-25T06:18:41.550Z,3.50
2023-04-25T06:37:23.981Z,3.10
2023-04-25T07:14:43.321Z,2.30
2023-04-25T07:33:24.740Z,3.90
2023-04-25T07:52:07.267Z,3.90
2023-04-25T08:10:48.865Z,3.30
2023-04-25T08:29:36.865Z,2.60
2023-04-25T09:06:53.792Z,2.40
2023-04-25T09:25:35.632Z,3.10
2023-04-25T10:03:01.218Z,2.10
2023-04-25T10:21:46.236Z,1.90
2023-04-25T10:40:27.816Z,0.60
2023-04-25T10:59:14.190Z,0.70
2023-04-25T11:17:48.976Z,0.40
2023-04-25T11:36:28.386Z,0.50
2023-04-25T11:55:13.391Z,0.70
2023-04-25T12:32:39.106Z,1.20
2023-04-25T13:28:11.269Z,1.20
2023-04-25T13:46:55.028Z,2.10
2023-04-25T14:05:34.855Z,0.80
2023-04-25T14:24:16.372Z,1.00
2023-04-25T14:43:18.689Z,0.50
2023-04-25T15:02:08.751Z,0.40
2023-04-25T15:20:43.944Z,0.50
2023-04-25T15:39:28.690Z,0.50
2023-04-25T16:16:36.400Z,1.70
2023-04-25T16:35:12.836Z,1.40
2023-04-25T16:53:39.352Z,0.70
2023-04-25T17:12:12.383Z,3.30
2023-04-25T17:49:15.078Z,2.90
2023-04-25T18:07:49.635Z,1.60
2023-04-25T18:44:56.582Z,1.50
2023-04-25T19:22:12.358Z,0.40
2023-04-25T19:59:30.040Z,2.40
2023-04-25T20:18:06.771Z,0.70
2023-04-25T20:36:44.681Z,0.70
2023-04-25T20:55:21.775Z,1.00
2023-04-25T21:13:59.591Z,1.10
2023-04-25T21:32:36.593Z,1.30
2023-04-25T22:09:55.322Z,1.60
2023-04-25T22:28:29.548Z,1.70
2023-04-25T22:47:09.431Z,1.30
2023-04-25T23:05:46.377Z,2.50
2023-04-25T23:24:24.590Z,0.50
2023-04-25T23:43:01.206Z,0.50
